This is the latest recevied weather packets stored in our database for station/object NO9B. If no packets are shown the sender has not sent any weather packets the latest 1 day(s).
| Time | Temp. | Humidity | Pressure | Rain* | Wind** | Luminosity | Snow |
|---|---|---|---|---|---|---|---|
| 1778002128 | 12.78° C | 34% | 1009 hPa | 0 mm | 1.79 m/s, 249° | 415 W/m² | - |
| 1778001825 | 12.78° C | 35% | 1009.1 hPa | 0 mm | 1.34 m/s, 241° | 522 W/m² | - |
| 1778001525 | 12.78° C | 34% | 1009 hPa | 0 mm | 1.79 m/s, 273° | 576 W/m² | - |
| 1778001222 | 12.78° C | 33% | 1008.9 hPa | 0 mm | 2.68 m/s, 208° | 399 W/m² | - |
| 1778000918 | 12.78° C | 34% | 1008.7 hPa | 0 mm | 1.79 m/s, 295° | 557 W/m² | - |
| 1778000615 | 12.78° C | 33% | 1008.8 hPa | 0 mm | 2.68 m/s, 245° | 372 W/m² | - |
| 1778000311 | 12.78° C | 34% | 1008.7 hPa | 0 mm | 1.79 m/s, 264° | 322 W/m² | - |
| 1778000006 | 12.22° C | 35% | 1008.8 hPa | 0 mm | 1.79 m/s, 250° | 473 W/m² | - |
| 1777999702 | 12.78° C | 34% | 1008.7 hPa | 0 mm | 1.79 m/s, 248° | 339 W/m² | - |
| 1777999399 | 12.22° C | 36% | 1008.7 hPa | 0 mm | 1.79 m/s, 259° | 346 W/m² | - |
| 1777999098 | 12.22° C | 34% | 1008.6 hPa | 0 mm | 1.34 m/s, 259° | 278 W/m² | - |
| 1777998796 | 12.22° C | 32% | 1008.9 hPa | 0 mm | 2.68 m/s, 220° | 412 W/m² | - |
| 1777998494 | 12.78° C | 31% | 1009.3 hPa | 0 mm | 3.58 m/s, 211° | 531 W/m² | - |
| 1777998190 | 12.78° C | 32% | 1008.9 hPa | 0 mm | 2.24 m/s, 205° | 607 W/m² | - |
| 1777997887 | 12.22° C | 35% | 1008.7 hPa | 0 mm | 0.89 m/s, 271° | 580 W/m² | - |
| 1777997584 | 12.22° C | 35% | 1008.7 hPa | 0 mm | 4.92 m/s, 206° | 72 W/m² | - |
| 1777997282 | 11.67° C | 34% | 1008.9 hPa | 0 mm | 1.79 m/s, 220° | 83 W/m² | - |
| 1777996979 | 11.67° C | 35% | 1008.8 hPa | 0 mm | 1.34 m/s, 284° | 96 W/m² | - |
| 1777996676 | 11.67° C | 36% | 1009 hPa | 0 mm | 2.24 m/s, 240° | 92 W/m² | - |
| 1777996371 | 11.67° C | 38% | 1008.9 hPa | 0 mm | 1.79 m/s, 230° | 52 W/m² | - |
| 1777996068 | 11.11° C | 38% | 1008.8 hPa | 0 mm | 1.34 m/s, 247° | 46 W/m² | - |
| 1777995765 | 11.67° C | 35% | 1008.6 hPa | 0 mm | 1.79 m/s, 231° | 45 W/m² | - |
| 1777995461 | 11.11° C | 37% | 1008.8 hPa | 0 mm | 0.89 m/s, 264° | 50 W/m² | - |
| 1777995158 | 11.11° C | 37% | 1008.9 hPa | 0 mm | 1.34 m/s, 265° | 39 W/m² | - |
| 1777994856 | 11.67° C | 37% | 1008.8 hPa | 0 mm | 1.79 m/s, 216° | 78 W/m² | - |
* Rain latest hour (hover to see other rain measurements)
** Current wind speed in m/s (hover to see current wind gust speed)